Time;durP1;ratioP1;P1;durP2;ratioP2;P2;SDS_P1;SDS_P2;PMS_P1;PMS_P2;Temp;Humidity;BMP_temperature;BMP_pressure;BME280_temperature;BME280_humidity;BME280_pressure;Samples;Min_cycle;Max_cycle;Signal;HPM_P1;HPM_P2
2022/02/03 00:07:23;;;;;;;1999.90;999.90;;;;;;;3.61;74.19;101507.09;15675478;28;20041;-61
2022/02/03 00:23:07;;;;;;;1999.90;999.90;;;;;;;3.70;74.64;101511.00;15674899;28;20049;-61
2022/02/03 00:31:02;;;;;;;1999.90;999.90;;;;;;;3.91;73.28;101531.28;15674884;28;20045;-60
2022/02/03 00:54:24;;;;;;;1999.90;999.90;;;;;;;3.59;73.79;101539.66;15687323;28;20103;-60
2022/02/03 01:02:01;;;;;;;1999.90;999.90;;;;;;;3.74;73.38;101546.09;15686267;28;20379;-60
2022/02/03 01:09:43;;;;;;;1999.90;999.90;;;;;;;3.76;73.84;101548.59;15685500;28;20072;-59
2022/02/03 01:17:28;;;;;;;1999.90;999.90;;;;;;;3.80;73.73;101535.09;15684658;28;20086;-62
2022/02/03 01:49:05;;;;;;;1999.90;999.90;;;;;;;3.82;73.85;101538.41;15681484;28;20544;-63
2022/02/03 01:56:39;;;;;;;1999.90;999.90;;;;;;;3.91;73.88;101525.75;15665049;28;20452;-60
2022/02/03 02:04:24;;;;;;;1999.90;999.90;;;;;;;3.94;74.27;101516.91;15665084;28;20045;-60
2022/02/03 02:12:06;;;;;;;1999.90;999.90;;;;;;;3.96;74.44;101517.47;15682193;28;20037;-61
2022/02/03 02:19:57;;;;;;;1999.90;999.90;;;;;;;3.96;74.52;101517.47;15663759;28;20041;-62
2022/02/03 02:43:26;;;;;;;1999.90;999.90;;;;;;;4.17;73.93;101488.00;15681011;28;20056;-61
2022/02/03 02:51:07;;;;;;;1999.90;999.90;;;;;;;4.09;74.11;101485.78;15679074;28;20041;-61
2022/02/03 02:59:01;;;;;;;1999.90;999.90;;;;;;;4.22;73.92;101461.22;15679334;28;20383;-62
2022/02/03 03:30:22;;;;;;;1999.90;999.90;;;;;;;4.59;72.89;101432.56;15678958;28;20057;-60
2022/02/03 03:37:58;;;;;;;1999.90;999.90;;;;;;;4.54;73.46;101430.59;15679011;28;20052;-61
2022/02/03 03:45:34;;;;;;;1999.90;999.90;;;;;;;4.55;73.71;101425.91;15676927;28;20044;-62
2022/02/03 03:53:17;;;;;;;1999.90;999.90;;;;;;;4.68;73.21;101441.13;15659678;28;20435;-60
2022/02/03 04:28:41;;;;;;;1999.90;999.90;;;;;;;4.72;73.35;101436.72;15677068;28;20474;-59
2022/02/03 04:33:38;;;;;;;1999.90;999.90;;;;;;;4.90;72.74;101422.31;15675259;28;20075;-63
2022/02/03 04:41:59;;;;;;;1999.90;999.90;;;;;;;5.10;71.94;101422.28;15674681;28;20398;-62
2022/02/03 04:58:25;;;;;;;1999.90;999.90;;;;;;;4.73;72.98;101394.97;15657480;28;20052;-59
2022/02/03 05:06:06;;;;;;;1999.90;999.90;;;;;;;4.65;73.07;101392.75;15657049;28;20041;-63
2022/02/03 05:14:23;;;;;;;1999.90;999.90;;;;;;;4.52;73.19;101401.59;15675023;28;20471;-61
2022/02/03 05:22:45;;;;;;;1999.90;999.90;;;;;;;4.52;73.02;101398.84;15676702;28;20072;-61
2022/02/03 05:46:56;;;;;;;1999.90;999.90;;;;;;;4.41;72.99;101375.88;15685717;28;20124;-62
2022/02/03 05:55:01;;;;;;;1999.90;999.90;;;;;;;4.37;73.47;101374.75;15685197;28;20037;-61
2022/02/03 06:02:49;;;;;;;1999.90;999.90;;;;;;;4.37;72.73;101366.47;15683574;28;20033;-62
2022/02/03 06:33:56;;;;;;;1999.90;999.90;;;;;;;4.40;72.54;101326.44;15618033;28;20049;-61
2022/02/03 06:41:30;;;;;;;1999.90;999.90;;;;;;;4.32;72.84;101336.09;15602200;28;20077;-61
2022/02/03 06:49:11;;;;;;;1999.90;999.90;;;;;;;4.48;72.19;101329.47;15619258;28;20052;-62
2022/02/03 06:56:52;;;;;;;1999.90;999.90;;;;;;;4.71;71.58;101319.75;15619579;28;20563;-62
2022/02/03 07:04:28;;;;;;;1999.90;999.90;;;;;;;4.66;71.76;101313.41;15618713;28;20095;-62
2022/02/03 07:12:04;;;;;;;1999.90;999.90;;;;;;;4.67;71.72;101312.28;15629790;28;20405;-64
2022/02/03 07:19:42;;;;;;;1999.90;999.90;;;;;;;4.77;72.15;101312.28;15679941;28;20049;-63
2022/02/03 07:27:16;;;;;;;1999.90;999.90;;;;;;;5.08;70.75;101313.84;15682725;28;20526;-62
2022/02/03 07:34:50;;;;;;;1999.90;999.90;;;;;;;4.85;71.20;101312.53;15662840;28;20045;-62
2022/02/03 07:42:24;;;;;;;1999.90;999.90;;;;;;;5.07;70.88;101298.34;15630035;28;20048;-64
2022/02/03 07:49:56;;;;;;;1999.90;999.90;;;;;;;5.00;70.76;101297.81;15642914;28;20045;-61
2022/02/03 07:57:30;;;;;;;1999.90;999.90;;;;;;;5.29;70.80;101288.84;15660406;28;20053;-63
2022/02/03 08:05:04;;;;;;;1999.90;999.90;;;;;;;5.52;70.75;101282.63;15676102;28;20116;-63
2022/02/03 08:12:37;;;;;;;1999.90;999.90;;;;;;;5.82;69.93;101283.56;15659315;28;20112;-63
2022/02/03 08:20:15;;;;;;;1999.90;999.90;;;;;;;5.65;69.54;101282.03;15676912;28;20452;-61
2022/02/03 08:28:15;;;;;;;1999.90;999.90;;;;;;;5.93;69.81;101276.88;15675664;28;20073;-62
2022/02/03 08:35:49;;;;;;;1999.90;999.90;;;;;;;6.30;69.34;101271.59;15675577;28;20450;-62
2022/02/03 08:43:28;;;;;;;1999.90;999.90;;;;;;;6.45;69.46;101259.50;15676385;28;20045;-62
2022/02/03 08:51:02;;;;;;;1999.90;999.90;;;;;;;6.26;69.49;101245.59;15675728;28;20064;-62
2022/02/03 08:59:11;;;;;;;1999.90;999.90;;;;;;;6.42;69.55;101256.50;15683436;28;20048;-62
2022/02/03 09:38:24;;;;;;;1999.90;999.90;;;;;;;7.42;71.48;101225.91;15684768;28;20057;-62
2022/02/03 09:54:14;;;;;;;1999.90;999.90;;;;;;;7.74;72.00;101193.75;15655876;28;20037;-63
2022/02/03 10:01:54;;;;;;;1999.90;999.90;;;;;;;8.31;71.24;101203.59;15620361;28;20108;-62
2022/02/03 10:09:36;;;;;;;1999.90;999.90;;;;;;;8.10;72.79;101192.00;15657520;28;20110;-64
2022/02/03 10:17:10;;;;;;;1999.90;999.90;;;;;;;8.37;73.00;101191.28;15665366;28;20118;-64
2022/02/03 10:24:45;;;;;;;1999.90;999.90;;;;;;;8.12;75.35;101172.25;15684604;28;20048;-63
2022/02/03 10:32:19;;;;;;;1999.90;999.90;;;;;;;8.05;76.63;101166.28;15685613;28;20055;-63
2022/02/03 10:48:08;;;;;;;1999.90;999.90;;;;;;;7.57;79.53;101129.59;15682875;28;20068;-63
2022/02/03 11:03:42;;;;;;;1999.90;999.90;;;;;;;7.81;79.99;101120.03;15662482;28;20132;-63
2022/02/03 11:11:19;;;;;;;1999.90;999.90;;;;;;;7.85;79.96;101120.22;15680690;28;20491;-63
2022/02/03 11:18:56;;;;;;;1999.90;999.90;;;;;;;7.85;80.39;101111.06;15678615;28;20071;-62
2022/02/03 11:26:38;;;;;;;1999.90;999.90;;;;;;;7.83;81.01;101114.16;15679340;28;20126;-63
2022/02/03 11:34:41;;;;;;;1999.90;999.90;;;;;;;7.74;81.82;101099.31;15679479;28;20489;-62
2022/02/03 11:50:56;;;;;;;1999.90;999.90;;;;;;;7.73;82.33;101084.59;15678304;28;20057;-61
2022/02/03 11:58:58;;;;;;;1999.90;999.90;;;;;;;8.04;81.50;101067.34;15677050;28;20072;-63
2022/02/03 12:15:05;;;;;;;1999.90;999.90;;;;;;;8.18;81.62;101048.72;15676110;28;20139;-62
2022/02/03 12:22:53;;;;;;;1999.90;999.90;;;;;;;8.09;81.95;101039.44;15659826;28;20129;-62
2022/02/03 12:30:30;;;;;;;1999.90;999.90;;;;;;;8.40;80.85;101034.13;15674983;28;20049;-62
2022/02/03 12:38:23;;;;;;;1999.90;999.90;;;;;;;8.44;81.53;101029.59;15674398;28;20045;-62
2022/02/03 12:45:55;;;;;;;1999.90;999.90;;;;;;;8.19;82.33;101016.19;15675825;28;20520;-62
2022/02/03 12:53:33;;;;;;;1999.90;999.90;;;;;;;8.76;81.19;101008.31;15675717;28;20080;-62
2022/02/03 13:01:10;;;;;;;1999.90;999.90;;;;;;;8.64;81.43;100992.13;15658221;28;20045;-61
2022/02/03 13:08:47;;;;;;;1999.90;999.90;;;;;;;8.57;81.95;100984.22;15674876;28;20049;-62
2022/02/03 13:16:22;;;;;;;1999.90;999.90;;;;;;;8.91;81.04;100982.88;15675544;28;20041;-62
2022/02/03 13:24:06;;;;;;;1999.90;999.90;;;;;;;8.94;81.23;100971.94;15673876;28;20048;-62
2022/02/03 13:31:47;;;;;;;1999.90;999.90;;;;;;;8.74;81.60;100957.69;15672049;28;20037;-60
2022/02/03 13:39:26;;;;;;;1999.90;999.90;;;;;;;8.97;81.05;100948.22;15672993;28;20041;-61
2022/02/03 13:46:59;;;;;;;1999.90;999.90;;;;;;;8.96;81.09;100952.13;15683461;28;20056;-62
2022/02/03 14:11:20;;;;;;;1999.90;999.90;;;;;;;9.12;81.30;100928.34;15677018;28;20654;-62
2022/02/03 14:19:01;;;;;;;1999.90;999.90;;;;;;;9.19;81.07;100917.59;15676686;28;20041;-62
2022/02/03 14:26:58;;;;;;;1999.90;999.90;;;;;;;9.22;81.30;100919.72;15681744;28;20102;-62
2022/02/03 14:34:33;;;;;;;1999.90;999.90;;;;;;;9.20;81.50;100913.66;15681414;28;20131;-62
2022/02/03 14:42:09;;;;;;;1999.90;999.90;;;;;;;9.31;81.45;100894.72;15681594;28;20094;-62
2022/02/03 14:49:44;;;;;;;1999.90;999.90;;;;;;;9.17;82.26;100886.47;15681555;28;20041;-61
2022/02/03 15:05:10;;;;;;;1999.90;999.90;;;;;;;9.36;81.92;100877.84;15679886;28;20487;-62
2022/02/03 15:12:57;;;;;;;1999.90;999.90;;;;;;;9.23;82.37;100874.03;15679712;28;20041;-62
2022/02/03 15:20:30;;;;;;;1999.90;999.90;;;;;;;9.29;83.01;100860.81;15677928;28;20068;-61
2022/02/03 15:28:04;;;;;;;1999.90;999.90;;;;;;;9.30;83.22;100861.63;15661948;28;20119;-62
2022/02/03 15:35:40;;;;;;;1999.90;999.90;;;;;;;9.23;83.15;100840.63;15678758;28;20072;-62
2022/02/03 15:43:24;;;;;;;1999.90;999.90;;;;;;;9.32;83.15;100856.53;15678923;28;20080;-62
2022/02/03 15:51:11;;;;;;;1999.90;999.90;;;;;;;9.37;83.00;100845.25;15677908;28;20037;-62
2022/02/03 16:22:42;;;;;;;1999.90;999.90;;;;;;;9.39;82.58;100831.84;15677364;28;20044;-62
2022/02/03 16:53:49;;;;;;;1999.90;999.90;;;;;;;9.68;81.37;100834.84;15677584;28;20063;-61
2022/02/03 17:01:22;;;;;;;1999.90;999.90;;;;;;;9.72;80.86;100824.72;15674781;28;20459;-62
2022/02/03 17:08:57;;;;;;;1999.90;999.90;;;;;;;9.64;81.47;100817.16;15676196;28;20099;-62
2022/02/03 17:16:36;;;;;;;1999.90;999.90;;;;;;;9.56;81.73;100804.03;15678626;28;20041;-61
2022/02/03 17:24:10;;;;;;;1999.90;999.90;;;;;;;9.55;81.99;100807.97;15687108;28;20106;-61
2022/02/03 17:31:56;;;;;;;1999.90;999.90;;;;;;;9.56;81.70;100798.44;15691248;28;20045;-62
2022/02/03 18:03:35;;;;;;;1999.90;999.90;;;;;;;9.63;81.17;100787.66;15716706;28;20445;-62
2022/02/03 18:11:23;;;;;;;1999.90;999.90;;;;;;;9.67;81.03;100794.22;15613759;22;20525;-60
2022/02/03 18:19:42;;;;;;;1999.90;999.90;;;;;;;9.66;81.36;100792.56;15435358;28;20137;-60
2022/02/03 18:35:30;;;;;;;1999.90;999.90;;;;;;;9.63;81.54;100768.16;15787861;27;20409;-59
2022/02/03 18:50:59;;;;;;;1999.90;999.90;;;;;;;9.64;81.89;100750.28;15745850;28;20052;-60
2022/02/03 18:58:39;;;;;;;1999.90;999.90;;;;;;;9.57;81.99;100740.78;15779607;28;20454;-59
2022/02/03 20:09:48;;;;;;;1999.90;999.90;;;;;;;9.73;82.17;100700.16;15678222;28;20047;-61
2022/02/03 20:17:21;;;;;;;1999.90;999.90;;;;;;;9.53;82.29;100699.66;15659449;28;20454;-60
2022/02/03 20:25:04;;;;;;;1999.90;999.90;;;;;;;9.48;82.55;100683.09;15676565;28;20409;-60
2022/02/03 20:32:36;;;;;;;1999.90;999.90;;;;;;;9.24;83.77;100680.75;15660736;28;20037;-61
2022/02/03 20:40:14;;;;;;;1999.90;999.90;;;;;;;9.45;82.98;100669.00;15676755;28;20056;-61
2022/02/03 20:47:51;;;;;;;1999.90;999.90;;;;;;;9.28;83.54;100669.81;15658140;28;20049;-60
2022/02/03 20:55:28;;;;;;;1999.90;999.90;;;;;;;9.30;83.78;100672.28;15708366;28;20447;-61
2022/02/03 21:03:04;;;;;;;;;;;;;;;9.46;82.86;100670.63;15737868;28;20118;-61
2022/02/03 21:10:38;;;;;;;1999.90;999.90;;;;;;;9.24;83.95;100669.63;15736960;28;19935;-61
2022/02/03 21:18:12;;;;;;;1999.90;999.90;;;;;;;9.36;83.14;100657.03;15718874;28;20064;-60
2022/02/03 21:25:48;;;;;;;1999.90;999.90;;;;;;;9.35;83.21;100658.19;15736172;28;20155;-60
2022/02/03 21:33:26;;;;;;;1999.90;999.90;;;;;;;9.38;83.12;100646.38;15735863;28;20044;-61
2022/02/03 21:41:00;;;;;;;1999.90;999.90;;;;;;;9.47;82.72;100647.19;15734164;28;20043;-61
2022/02/03 21:48:32;;;;;;;1999.90;999.90;;;;;;;9.55;82.35;100650.00;15735511;28;20079;-60
2022/02/03 21:56:05;;;;;;;1999.90;999.90;;;;;;;9.69;81.88;100649.00;15696540;28;20052;-60
2022/02/03 22:03:37;;;;;;;1999.90;999.90;;;;;;;9.56;82.34;100661.94;15672822;28;20468;-61
2022/02/03 22:11:12;;;;;;;1999.90;999.90;;;;;;;9.30;81.20;100661.13;15693678;28;20354;-60
2022/02/03 22:18:44;;;;;;;1999.90;999.90;;;;;;;9.42;80.85;100655.72;15725023;28;20048;-60
2022/02/03 22:26:49;;;;;;;1999.90;999.90;;;;;;;9.47;80.99;100664.72;15687629;28;20132;-59
2022/02/03 22:42:29;;;;;;;1999.90;999.90;;;;;;;9.66;79.90;100653.28;15709255;28;20485;-58
2022/02/03 22:50:01;;;;;;;1999.90;999.90;;;;;;;9.61;80.34;100652.63;15733728;28;20048;-59
2022/02/03 22:57:35;;;;;;;1999.90;999.90;;;;;;;9.61;79.46;100666.56;15716232;28;20079;-60
2022/02/03 23:05:08;;;;;;;1999.90;999.90;;;;;;;9.61;79.79;100663.78;15732452;28;20047;-60
2022/02/03 23:12:55;;;;;;;1999.90;999.90;;;;;;;9.57;79.55;100666.38;15725812;28;20041;-60
2022/02/03 23:20:40;;;;;;;1999.90;999.90;;;;;;;9.61;78.80;100664.59;15679539;28;20045;-61
2022/02/03 23:28:19;;;;;;;1999.90;999.90;;;;;;;9.63;79.22;100647.53;15679669;28;20082;-61
2022/02/03 23:35:51;;;;;;;1999.90;999.90;;;;;;;9.56;78.75;100653.59;15679967;28;20057;-61
2022/02/03 23:51:48;;;;;;;1999.90;999.90;;;;;;;9.55;78.76;100641.63;15673055;28;20056;-61
